sensor_id;sensor_type;location;lat;lon;timestamp;pressure;altitude;pressure_sealevel;temperature;humidity
57234;BME280;43090;52.604;13.318;2023-04-15T00:00:56;100015.88;;;7.97;100.00
57234;BME280;43090;52.604;13.318;2023-04-15T00:03:26;100008.66;;;7.86;100.00
57234;BME280;43090;52.604;13.318;2023-04-15T00:05:54;100022.50;;;7.91;100.00
57234;BME280;43090;52.604;13.318;2023-04-15T00:08:20;99999.50;;;7.64;100.00
57234;BME280;43090;52.604;13.318;2023-04-15T00:10:47;100015.22;;;7.93;100.00
57234;BME280;43090;52.604;13.318;2023-04-15T00:13:14;100032.38;;;8.15;100.00
57234;BME280;43090;52.604;13.318;2023-04-15T00:15:41;100003.59;;;8.07;100.00
57234;BME280;43090;52.604;13.318;2023-04-15T00:18:08;100047.75;;;8.48;100.00
57234;BME280;43090;52.604;13.318;2023-04-15T00:20:35;100007.66;;;7.87;100.00
57234;BME280;43090;52.604;13.318;2023-04-15T00:23:02;99997.31;;;7.95;100.00
57234;BME280;43090;52.604;13.318;2023-04-15T00:25:30;100016.28;;;7.91;100.00
57234;BME280;43090;52.604;13.318;2023-04-15T00:27:56;100008.03;;;8.07;100.00
57234;BME280;43090;52.604;13.318;2023-04-15T00:30:23;100012.78;;;7.90;100.00
57234;BME280;43090;52.604;13.318;2023-04-15T00:32:51;99992.19;;;7.92;100.00
57234;BME280;43090;52.604;13.318;2023-04-15T00:35:18;99997.00;;;7.87;100.00
57234;BME280;43090;52.604;13.318;2023-04-15T00:37:44;99990.06;;;7.97;100.00
57234;BME280;43090;52.604;13.318;2023-04-15T00:40:12;99999.13;;;7.95;100.00
57234;BME280;43090;52.604;13.318;2023-04-15T00:42:39;99997.22;;;7.97;100.00
57234;BME280;43090;52.604;13.318;2023-04-15T00:45:06;99997.53;;;7.92;100.00
57234;BME280;43090;52.604;13.318;2023-04-15T00:47:35;99991.47;;;7.90;100.00
57234;BME280;43090;52.604;13.318;2023-04-15T00:50:03;99992.16;;;8.05;100.00
57234;BME280;43090;52.604;13.318;2023-04-15T00:52:30;100027.72;;;8.30;100.00
57234;BME280;43090;52.604;13.318;2023-04-15T00:54:59;99983.66;;;7.87;100.00
57234;BME280;43090;52.604;13.318;2023-04-15T00:57:35;100027.47;;;8.09;100.00
57234;BME280;43090;52.604;13.318;2023-04-15T01:00:02;99984.00;;;7.95;100.00
57234;BME280;43090;52.604;13.318;2023-04-15T01:02:31;99986.84;;;7.92;100.00
57234;BME280;43090;52.604;13.318;2023-04-15T01:04:58;99974.31;;;7.81;100.00
57234;BME280;43090;52.604;13.318;2023-04-15T01:07:25;99984.56;;;8.12;100.00
57234;BME280;43090;52.604;13.318;2023-04-15T01:09:52;99980.94;;;8.13;100.00
57234;BME280;43090;52.604;13.318;2023-04-15T01:12:19;99981.09;;;7.98;100.00
57234;BME280;43090;52.604;13.318;2023-04-15T01:14:46;100021.19;;;8.10;100.00
57234;BME280;43090;52.604;13.318;2023-04-15T01:17:13;100004.00;;;8.14;100.00
57234;BME280;43090;52.604;13.318;2023-04-15T01:19:40;99991.09;;;8.08;100.00
57234;BME280;43090;52.604;13.318;2023-04-15T01:22:08;99980.50;;;7.82;100.00
57234;BME280;43090;52.604;13.318;2023-04-15T01:24:37;99970.81;;;7.81;100.00
57234;BME280;43090;52.604;13.318;2023-04-15T01:27:05;99982.81;;;7.99;100.00
57234;BME280;43090;52.604;13.318;2023-04-15T01:29:36;99987.31;;;7.86;100.00
57234;BME280;43090;52.604;13.318;2023-04-15T01:32:03;99978.88;;;7.92;100.00
57234;BME280;43090;52.604;13.318;2023-04-15T01:34:40;99988.00;;;7.64;100.00
57234;BME280;43090;52.604;13.318;2023-04-15T01:51:06;99966.50;;;7.03;100.00
57234;BME280;43090;52.604;13.318;2023-04-15T01:53:43;99971.41;;;7.34;100.00
57234;BME280;43090;52.604;13.318;2023-04-15T01:56:12;99980.84;;;7.64;100.00
57234;BME280;43090;52.604;13.318;2023-04-15T01:58:42;99960.41;;;7.65;100.00
57234;BME280;43090;52.604;13.318;2023-04-15T02:01:08;100003.25;;;7.99;100.00
57234;BME280;43090;52.604;13.318;2023-04-15T02:03:37;99967.44;;;7.53;100.00
57234;BME280;43090;52.604;13.318;2023-04-15T02:06:05;99978.13;;;7.90;100.00
57234;BME280;43090;52.604;13.318;2023-04-15T02:08:39;99954.53;;;7.73;100.00
57234;BME280;43090;52.604;13.318;2023-04-15T02:11:08;99990.03;;;8.10;100.00
57234;BME280;43090;52.604;13.318;2023-04-15T02:13:35;99956.63;;;7.80;100.00
57234;BME280;43090;52.604;13.318;2023-04-15T02:16:03;99966.53;;;7.91;100.00
57234;BME280;43090;52.604;13.318;2023-04-15T02:18:30;99957.91;;;7.75;100.00
57234;BME280;43090;52.604;13.318;2023-04-15T02:20:59;99957.06;;;7.74;100.00
57234;BME280;43090;52.604;13.318;2023-04-15T02:23:26;99960.22;;;7.92;100.00
57234;BME280;43090;52.604;13.318;2023-04-15T02:25:59;100006.66;;;8.38;100.00
57234;BME280;43090;52.604;13.318;2023-04-15T02:28:27;99964.41;;;7.83;100.00
57234;BME280;43090;52.604;13.318;2023-04-15T02:30:56;99953.25;;;8.03;100.00
57234;BME280;43090;52.604;13.318;2023-04-15T02:33:24;99963.50;;;7.96;100.00
57234;BME280;43090;52.604;13.318;2023-04-15T02:35:54;99962.72;;;8.07;100.00
57234;BME280;43090;52.604;13.318;2023-04-15T02:38:21;99957.06;;;8.11;100.00
57234;BME280;43090;52.604;13.318;2023-04-15T02:40:49;99964.69;;;7.92;100.00
57234;BME280;43090;52.604;13.318;2023-04-15T02:43:17;99964.81;;;7.90;100.00
57234;BME280;43090;52.604;13.318;2023-04-15T02:45:44;100007.09;;;8.32;100.00
57234;BME280;43090;52.604;13.318;2023-04-15T02:48:11;99961.09;;;7.80;100.00
57234;BME280;43090;52.604;13.318;2023-04-15T02:50:41;99971.94;;;7.90;100.00
57234;BME280;43090;52.604;13.318;2023-04-15T02:53:08;100018.75;;;8.31;100.00
57234;BME280;43090;52.604;13.318;2023-04-15T02:55:35;100004.28;;;8.22;100.00
57234;BME280;43090;52.604;13.318;2023-04-15T02:58:02;100014.25;;;8.31;100.00
57234;BME280;43090;52.604;13.318;2023-04-15T03:00:35;99969.59;;;7.98;100.00
57234;BME280;43090;52.604;13.318;2023-04-15T03:03:05;99974.25;;;8.07;100.00
57234;BME280;43090;52.604;13.318;2023-04-15T03:05:33;100014.94;;;8.22;100.00
57234;BME280;43090;52.604;13.318;2023-04-15T03:08:03;99972.16;;;7.99;100.00
57234;BME280;43090;52.604;13.318;2023-04-15T03:10:31;100021.34;;;8.20;100.00
57234;BME280;43090;52.604;13.318;2023-04-15T03:12:59;99977.47;;;7.99;100.00
57234;BME280;43090;52.604;13.318;2023-04-15T03:15:32;99974.25;;;8.07;100.00
57234;BME280;43090;52.604;13.318;2023-04-15T03:18:00;99989.38;;;8.07;100.00
57234;BME280;43090;52.604;13.318;2023-04-15T03:20:33;99975.44;;;8.03;100.00
57234;BME280;43090;52.604;13.318;2023-04-15T03:23:05;99980.78;;;8.03;100.00
57234;BME280;43090;52.604;13.318;2023-04-15T03:26:01;99968.28;;;8.04;100.00
57234;BME280;43090;52.604;13.318;2023-04-15T03:28:33;99997.13;;;8.23;100.00
57234;BME280;43090;52.604;13.318;2023-04-15T03:31:14;99997.22;;;8.21;100.00
57234;BME280;43090;52.604;13.318;2023-04-15T03:33:41;99981.59;;;8.16;100.00
57234;BME280;43090;52.604;13.318;2023-04-15T03:36:16;99981.47;;;8.18;100.00
57234;BME280;43090;52.604;13.318;2023-04-15T03:38:46;100014.25;;;8.31;100.00
57234;BME280;43090;52.604;13.318;2023-04-15T03:41:17;100004.34;;;8.33;100.00
57234;BME280;43090;52.604;13.318;2023-04-15T03:43:45;99982.09;;;8.22;100.00
57234;BME280;43090;52.604;13.318;2023-04-15T03:46:13;99979.53;;;8.20;100.00
57234;BME280;43090;52.604;13.318;2023-04-15T03:48:46;99979.06;;;8.26;100.00
57234;BME280;43090;52.604;13.318;2023-04-15T03:51:14;99979.34;;;8.34;100.00
57234;BME280;43090;52.604;13.318;2023-04-15T03:53:43;100004.16;;;8.24;100.00
57234;BME280;43090;52.604;13.318;2023-04-15T03:56:12;99968.19;;;7.92;100.00
57234;BME280;43090;52.604;13.318;2023-04-15T03:58:46;100026.41;;;8.36;100.00
57234;BME280;43090;52.604;13.318;2023-04-15T04:01:13;100013.69;;;8.52;100.00
57234;BME280;43090;52.604;13.318;2023-04-15T04:03:41;100013.31;;;8.45;100.00
57234;BME280;43090;52.604;13.318;2023-04-15T04:06:12;99972.31;;;8.09;100.00
57234;BME280;43090;52.604;13.318;2023-04-15T04:08:44;99977.13;;;8.04;100.00
57234;BME280;43090;52.604;13.318;2023-04-15T04:11:12;100007.19;;;8.19;100.00
57234;BME280;43090;52.604;13.318;2023-04-15T04:13:39;99982.13;;;8.09;100.00
57234;BME280;43090;52.604;13.318;2023-04-15T04:16:08;99972.72;;;8.16;100.00
57234;BME280;43090;52.604;13.318;2023-04-15T04:18:36;99984.66;;;8.23;100.00
57234;BME280;43090;52.604;13.318;2023-04-15T04:21:03;100008.81;;;8.33;100.00
57234;BME280;43090;52.604;13.318;2023-04-15T04:23:30;100032.41;;;8.26;100.00
57234;BME280;43090;52.604;13.318;2023-04-15T04:25:57;99987.22;;;8.12;100.00
57234;BME280;43090;52.604;13.318;2023-04-15T04:28:25;100015.69;;;8.24;100.00
57234;BME280;43090;52.604;13.318;2023-04-15T04:31:02;100003.31;;;8.23;100.00
57234;BME280;43090;52.604;13.318;2023-04-15T04:33:32;99982.84;;;8.11;100.00
57234;BME280;43090;52.604;13.318;2023-04-15T04:36:03;99987.75;;;8.17;100.00
57234;BME280;43090;52.604;13.318;2023-04-15T04:38:34;99988.50;;;8.19;100.00
57234;BME280;43090;52.604;13.318;2023-04-15T04:41:10;100019.75;;;8.41;100.00
57234;BME280;43090;52.604;13.318;2023-04-15T04:43:38;100015.97;;;8.45;100.00
57234;BME280;43090;52.604;13.318;2023-04-15T04:46:05;99994.69;;;8.20;100.00
57234;BME280;43090;52.604;13.318;2023-04-15T04:48:34;100007.47;;;8.27;100.00
57234;BME280;43090;52.604;13.318;2023-04-15T04:51:03;99991.50;;;8.14;100.00
57234;BME280;43090;52.604;13.318;2023-04-15T04:53:32;99982.56;;;8.03;100.00
57234;BME280;43090;52.604;13.318;2023-04-15T04:56:00;99998.03;;;8.10;100.00
57234;BME280;43090;52.604;13.318;2023-04-15T04:58:32;100026.53;;;8.47;100.00
57234;BME280;43090;52.604;13.318;2023-04-15T05:01:01;100042.56;;;8.58;100.00
57234;BME280;43090;52.604;13.318;2023-04-15T05:03:28;100008.88;;;8.44;100.00
57234;BME280;43090;52.604;13.318;2023-04-15T05:05:58;100007.41;;;8.40;100.00
57234;BME280;43090;52.604;13.318;2023-04-15T05:08:31;100008.03;;;8.44;100.00
57234;BME280;43090;52.604;13.318;2023-04-15T05:10:58;100030.50;;;8.65;100.00
57234;BME280;43090;52.604;13.318;2023-04-15T05:13:25;100012.19;;;8.48;100.00
57234;BME280;43090;52.604;13.318;2023-04-15T05:15:52;100037.22;;;8.58;100.00
57234;BME280;43090;52.604;13.318;2023-04-15T05:18:20;100019.03;;;8.52;100.00
57234;BME280;43090;52.604;13.318;2023-04-15T05:20:47;100059.25;;;8.49;100.00
57234;BME280;43090;52.604;13.318;2023-04-15T05:23:15;100018.72;;;8.07;100.00
57234;BME280;43090;52.604;13.318;2023-04-15T05:25:43;100014.91;;;8.35;100.00
57234;BME280;43090;52.604;13.318;2023-04-15T05:28:10;100017.97;;;8.42;100.00
57234;BME280;43090;52.604;13.318;2023-04-15T05:30:40;100021.03;;;8.24;100.00
57234;BME280;43090;52.604;13.318;2023-04-15T05:33:07;100068.13;;;8.74;100.00
57234;BME280;43090;52.604;13.318;2023-04-15T05:35:34;100052.41;;;8.45;100.00
57234;BME280;43090;52.604;13.318;2023-04-15T05:38:02;100025.72;;;8.45;100.00
57234;BME280;43090;52.604;13.318;2023-04-15T05:40:29;100063.63;;;8.74;100.00
57234;BME280;43090;52.604;13.318;2023-04-15T05:42:56;100029.84;;;8.38;100.00
57234;BME280;43090;52.604;13.318;2023-04-15T05:45:23;100052.25;;;8.35;100.00
57234;BME280;43090;52.604;13.318;2023-04-15T05:47:52;100064.81;;;8.46;100.00
57234;BME280;43090;52.604;13.318;2023-04-15T05:50:20;100023.38;;;8.53;100.00
57234;BME280;43090;52.604;13.318;2023-04-15T05:52:48;100049.72;;;8.58;100.00
57234;BME280;43090;52.604;13.318;2023-04-15T05:55:14;100067.88;;;8.77;100.00
57234;BME280;43090;52.604;13.318;2023-04-15T05:57:41;100057.69;;;8.71;100.00
57234;BME280;43090;52.604;13.318;2023-04-15T06:00:08;100077.50;;;8.79;100.00
57234;BME280;43090;52.604;13.318;2023-04-15T06:02:35;100056.59;;;8.49;100.00
57234;BME280;43090;52.604;13.318;2023-04-15T06:05:02;100033.97;;;8.55;100.00
57234;BME280;43090;52.604;13.318;2023-04-15T06:07:29;100029.91;;;8.73;100.00
57234;BME280;43090;52.604;13.318;2023-04-15T06:09:56;100053.47;;;8.79;100.00
57234;BME280;43090;52.604;13.318;2023-04-15T06:12:26;100048.69;;;8.96;100.00
57234;BME280;43090;52.604;13.318;2023-04-15T06:14:54;100036.84;;;8.76;100.00
57234;BME280;43090;52.604;13.318;2023-04-15T06:17:20;100068.28;;;9.19;100.00
57234;BME280;43090;52.604;13.318;2023-04-15T06:19:47;100025.88;;;9.03;100.00
57234;BME280;43090;52.604;13.318;2023-04-15T06:22:16;100050.16;;;9.36;100.00
57234;BME280;43090;52.604;13.318;2023-04-15T06:24:43;100051.06;;;9.23;100.00
57234;BME280;43090;52.604;13.318;2023-04-15T06:27:10;100068.84;;;9.36;100.00
57234;BME280;43090;52.604;13.318;2023-04-15T06:29:38;100035.06;;;9.34;100.00
57234;BME280;43090;52.604;13.318;2023-04-15T06:32:05;100063.91;;;9.07;100.00
57234;BME280;43090;52.604;13.318;2023-04-15T06:34:32;100077.44;;;9.28;100.00
57234;BME280;43090;52.604;13.318;2023-04-15T06:36:59;100031.84;;;9.07;100.00
57234;BME280;43090;52.604;13.318;2023-04-15T06:39:26;100030.31;;;9.15;100.00
57234;BME280;43090;52.604;13.318;2023-04-15T06:41:53;100074.19;;;9.36;100.00
57234;BME280;43090;52.604;13.318;2023-04-15T06:44:20;100068.13;;;9.45;100.00
57234;BME280;43090;52.604;13.318;2023-04-15T06:46:50;100045.50;;;9.26;100.00
57234;BME280;43090;52.604;13.318;2023-04-15T06:49:19;100039.28;;;9.26;100.00
57234;BME280;43090;52.604;13.318;2023-04-15T06:51:46;100052.97;;;9.79;100.00
57234;BME280;43090;52.604;13.318;2023-04-15T06:54:13;100041.28;;;9.46;100.00
57234;BME280;43090;52.604;13.318;2023-04-15T06:56:42;100047.34;;;9.48;100.00
57234;BME280;43090;52.604;13.318;2023-04-15T06:59:09;100046.03;;;9.54;100.00
57234;BME280;43090;52.604;13.318;2023-04-15T07:01:36;100044.00;;;9.80;100.00
57234;BME280;43090;52.604;13.318;2023-04-15T07:04:03;100052.38;;;10.10;100.00
57234;BME280;43090;52.604;13.318;2023-04-15T07:06:30;100070.84;;;10.24;100.00
57234;BME280;43090;52.604;13.318;2023-04-15T07:08:58;100067.19;;;9.80;100.00
57234;BME280;43090;52.604;13.318;2023-04-15T07:11:29;100109.38;;;10.22;100.00
57234;BME280;43090;52.604;13.318;2023-04-15T07:14:02;100102.69;;;9.93;100.00
57234;BME280;43090;52.604;13.318;2023-04-15T07:16:29;100074.63;;;9.99;100.00
57234;BME280;43090;52.604;13.318;2023-04-15T07:18:56;100069.00;;;9.68;100.00
57234;BME280;43090;52.604;13.318;2023-04-15T07:21:26;100076.19;;;9.90;100.00
57234;BME280;43090;52.604;13.318;2023-04-15T07:23:53;100102.44;;;9.85;100.00
57234;BME280;43090;52.604;13.318;2023-04-15T07:26:23;100106.81;;;9.97;100.00
57234;BME280;43090;52.604;13.318;2023-04-15T07:28:53;100093.09;;;9.79;100.00
57234;BME280;43090;52.604;13.318;2023-04-15T07:31:21;100092.25;;;9.90;100.00
57234;BME280;43090;52.604;13.318;2023-04-15T07:33:48;100140.50;;;9.89;100.00
57234;BME280;43090;52.604;13.318;2023-04-15T07:36:15;100140.13;;;9.82;100.00
57234;BME280;43090;52.604;13.318;2023-04-15T07:38:43;100099.00;;;9.60;100.00
57234;BME280;43090;52.604;13.318;2023-04-15T07:41:12;100111.09;;;9.42;100.00
57234;BME280;43090;52.604;13.318;2023-04-15T07:43:42;100106.75;;;9.52;100.00
57234;BME280;43090;52.604;13.318;2023-04-15T07:46:09;100096.84;;;9.77;100.00
57234;BME280;43090;52.604;13.318;2023-04-15T07:48:40;100106.50;;;9.44;100.00
57234;BME280;43090;52.604;13.318;2023-04-15T07:51:07;100150.97;;;10.03;100.00
57234;BME280;43090;52.604;13.318;2023-04-15T07:53:33;100151.56;;;9.95;100.00
57234;BME280;43090;52.604;13.318;2023-04-15T07:56:00;100133.06;;;9.81;100.00
57234;BME280;43090;52.604;13.318;2023-04-15T07:58:27;100141.50;;;9.99;100.00
57234;BME280;43090;52.604;13.318;2023-04-15T08:00:54;100139.88;;;9.74;100.00
57234;BME280;43090;52.604;13.318;2023-04-15T08:03:21;100151.81;;;10.04;100.00
57234;BME280;43090;52.604;13.318;2023-04-15T08:05:48;100106.31;;;9.58;100.00
57234;BME280;43090;52.604;13.318;2023-04-15T08:08:20;100107.53;;;9.88;100.00
57234;BME280;43090;52.604;13.318;2023-04-15T08:10:51;100154.94;;;9.97;100.00
57234;BME280;43090;52.604;13.318;2023-04-15T08:13:21;100107.78;;;9.85;100.00
57234;BME280;43090;52.604;13.318;2023-04-15T08:16:21;100120.31;;;9.96;100.00
57234;BME280;43090;52.604;13.318;2023-04-15T08:18:50;100149.25;;;10.02;100.00
57234;BME280;43090;52.604;13.318;2023-04-15T08:21:18;100140.13;;;10.16;100.00
57234;BME280;43090;52.604;13.318;2023-04-15T08:23:47;100147.94;;;10.19;100.00
57234;BME280;43090;52.604;13.318;2023-04-15T08:26:16;100142.44;;;10.09;100.00
57234;BME280;43090;52.604;13.318;2023-04-15T08:28:44;100123.97;;;10.06;100.00
57234;BME280;43090;52.604;13.318;2023-04-15T08:31:15;100120.56;;;9.34;100.00
57234;BME280;43090;52.604;13.318;2023-04-15T08:33:56;100139.63;;;9.88;100.00
57234;BME280;43090;52.604;13.318;2023-04-15T08:36:37;100182.19;;;9.91;100.00
57234;BME280;43090;52.604;13.318;2023-04-15T08:39:16;100159.84;;;9.92;100.00
57234;BME280;43090;52.604;13.318;2023-04-15T08:42:03;100162.88;;;9.99;100.00
57234;BME280;43090;52.604;13.318;2023-04-15T08:44:45;100138.88;;;9.63;100.00
57234;BME280;43090;52.604;13.318;2023-04-15T08:47:39;100144.38;;;9.84;100.00
57234;BME280;43090;52.604;13.318;2023-04-15T08:50:24;100141.72;;;9.96;100.00
57234;BME280;43090;52.604;13.318;2023-04-15T08:53:03;100134.56;;;9.96;100.00
57234;BME280;43090;52.604;13.318;2023-04-15T08:55:46;100146.44;;;9.81;100.00
57234;BME280;43090;52.604;13.318;2023-04-15T08:58:19;100151.81;;;10.04;100.00
57234;BME280;43090;52.604;13.318;2023-04-15T09:00:51;100138.66;;;9.78;100.00
57234;BME280;43090;52.604;13.318;2023-04-15T09:03:23;100165.16;;;9.81;100.00
57234;BME280;43090;52.604;13.318;2023-04-15T09:05:50;100184.50;;;9.84;100.00
57234;BME280;43090;52.604;13.318;2023-04-15T09:08:18;100185.88;;;10.02;100.00
57234;BME280;43090;52.604;13.318;2023-04-15T09:10:46;100152.41;;;9.96;100.00
57234;BME280;43090;52.604;13.318;2023-04-15T09:13:17;100146.47;;;9.92;100.00
57234;BME280;43090;52.604;13.318;2023-04-15T09:16:12;100175.91;;;10.26;100.00
57234;BME280;43090;52.604;13.318;2023-04-15T09:18:42;100147.81;;;9.98;100.00
57234;BME280;43090;52.604;13.318;2023-04-15T09:21:34;100172.97;;;10.18;100.00
57234;BME280;43090;52.604;13.318;2023-04-15T09:24:04;100150.94;;;9.80;100.00
57234;BME280;43090;52.604;13.318;2023-04-15T09:26:41;100193.53;;;10.17;100.00
57234;BME280;43090;52.604;13.318;2023-04-15T09:29:11;100156.66;;;9.87;100.00
57234;BME280;43090;52.604;13.318;2023-04-15T09:31:43;100176.00;;;10.02;100.00
57234;BME280;43090;52.604;13.318;2023-04-15T09:34:10;100178.09;;;10.21;100.00
57234;BME280;43090;52.604;13.318;2023-04-15T09:39:16;100168.56;;;9.94;100.00
57234;BME280;43090;52.604;13.318;2023-04-15T09:42:03;100155.22;;;10.17;100.00
57234;BME280;43090;52.604;13.318;2023-04-15T09:44:32;100173.69;;;10.09;100.00
57234;BME280;43090;52.604;13.318;2023-04-15T09:47:00;100164.84;;;10.08;100.00
57234;BME280;43090;52.604;13.318;2023-04-15T09:49:32;100183.81;;;10.16;100.00
57234;BME280;43090;52.604;13.318;2023-04-15T09:52:05;100181.50;;;10.23;100.00
57234;BME280;43090;52.604;13.318;2023-04-15T09:54:57;100167.88;;;10.15;100.00
57234;BME280;43090;52.604;13.318;2023-04-15T09:57:24;100192.16;;;9.89;100.00
57234;BME280;43090;52.604;13.318;2023-04-15T10:01:09;100227.00;;;10.34;100.00
57234;BME280;43090;52.604;13.318;2023-04-15T10:07:51;100237.44;;;10.26;100.00
57234;BME280;43090;52.604;13.318;2023-04-15T10:10:34;100194.44;;;9.82;100.00
57234;BME280;43090;52.604;13.318;2023-04-15T10:13:56;100237.84;;;10.44;100.00
57234;BME280;43090;52.604;13.318;2023-04-15T10:16:55;100211.25;;;9.96;100.00
57234;BME280;43090;52.604;13.318;2023-04-15T10:19:37;100201.53;;;9.95;100.00
57234;BME280;43090;52.604;13.318;2023-04-15T10:22:17;100201.56;;;9.71;100.00
57234;BME280;43090;52.604;13.318;2023-04-15T10:24:55;100199.69;;;9.95;100.00
57234;BME280;43090;52.604;13.318;2023-04-15T10:27:25;100197.22;;;9.81;100.00
57234;BME280;43090;52.604;13.318;2023-04-15T10:29:57;100205.28;;;9.92;100.00
57234;BME280;43090;52.604;13.318;2023-04-15T10:32:29;100204.91;;;9.86;100.00
57234;BME280;43090;52.604;13.318;2023-04-15T10:35:00;100201.75;;;9.92;100.00
57234;BME280;43090;52.604;13.318;2023-04-15T10:37:44;100213.19;;;9.94;100.00
57234;BME280;43090;52.604;13.318;2023-04-15T10:40:44;100241.31;;;10.11;100.00
57234;BME280;43090;52.604;13.318;2023-04-15T10:43:31;100205.56;;;10.12;100.00
57234;BME280;43090;52.604;13.318;2023-04-15T10:46:11;100219.91;;;10.11;100.00
57234;BME280;43090;52.604;13.318;2023-04-15T10:49:02;100204.97;;;10.20;100.00
57234;BME280;43090;52.604;13.318;2023-04-15T10:52:06;100259.03;;;10.59;100.00
57234;BME280;43090;52.604;13.318;2023-04-15T10:58:08;100209.72;;;10.27;100.00
57234;BME280;43090;52.604;13.318;2023-04-15T11:00:52;100252.59;;;10.39;100.00
57234;BME280;43090;52.604;13.318;2023-04-15T11:08:02;100267.50;;;10.30;100.00
57234;BME280;43090;52.604;13.318;2023-04-15T11:13:31;100267.44;;;10.65;100.00
57234;BME280;43090;52.604;13.318;2023-04-15T11:16:03;100230.78;;;10.32;100.00
57234;BME280;43090;52.604;13.318;2023-04-15T11:19:54;100227.06;;;9.99;100.00
57234;BME280;43090;52.604;13.318;2023-04-15T11:22:29;100250.06;;;10.13;100.00
57234;BME280;43090;52.604;13.318;2023-04-15T11:25:06;100283.69;;;10.40;100.00
57234;BME280;43090;52.604;13.318;2023-04-15T11:31:13;100252.50;;;10.16;100.00
57234;BME280;43090;52.604;13.318;2023-04-15T11:34:06;100244.00;;;9.75;100.00
57234;BME280;43090;52.604;13.318;2023-04-15T11:41:17;100258.03;;;9.90;100.00
57234;BME280;43090;52.604;13.318;2023-04-15T11:44:29;100286.09;;;10.20;100.00
57234;BME280;43090;52.604;13.318;2023-04-15T11:47:27;100295.91;;;10.20;100.00
57234;BME280;43090;52.604;13.318;2023-04-15T11:50:33;100262.47;;;10.14;100.00
57234;BME280;43090;52.604;13.318;2023-04-15T11:53:52;100273.00;;;9.93;100.00
57234;BME280;43090;52.604;13.318;2023-04-15T11:57:32;100268.34;;;9.83;100.00
57234;BME280;43090;52.604;13.318;2023-04-15T12:01:39;100290.88;;;10.04;100.00
57234;BME280;43090;52.604;13.318;2023-04-15T12:04:48;100276.47;;;9.82;100.00
57234;BME280;43090;52.604;13.318;2023-04-15T12:07:58;100275.81;;;10.03;100.00
57234;BME280;43090;52.604;13.318;2023-04-15T12:10:43;100281.19;;;10.14;100.00
57234;BME280;43090;52.604;13.318;2023-04-15T12:13:45;100278.66;;;10.12;100.00
57234;BME280;43090;52.604;13.318;2023-04-15T12:16:22;100280.06;;;10.05;100.00
57234;BME280;43090;52.604;13.318;2023-04-15T12:19:27;100331.78;;;10.41;100.00
57234;BME280;43090;52.604;13.318;2023-04-15T12:22:20;100292.16;;;9.87;100.00
57234;BME280;43090;52.604;13.318;2023-04-15T12:24:57;100293.88;;;9.88;100.00
57234;BME280;43090;52.604;13.318;2023-04-15T12:30:55;100295.41;;;10.14;100.00
57234;BME280;43090;52.604;13.318;2023-04-15T12:33:34;100327.41;;;10.40;100.00
57234;BME280;43090;52.604;13.318;2023-04-15T12:36:04;100293.63;;;10.26;100.00
57234;BME280;43090;52.604;13.318;2023-04-15T12:38:35;100327.44;;;10.63;100.00
57234;BME280;43090;52.604;13.318;2023-04-15T12:41:03;100308.81;;;10.61;100.00
57234;BME280;43090;52.604;13.318;2023-04-15T12:43:31;100311.72;;;10.70;100.00
57234;BME280;43090;52.604;13.318;2023-04-15T12:46:39;100312.09;;;10.18;100.00
57234;BME280;43090;52.604;13.318;2023-04-15T12:49:08;100309.38;;;10.42;100.00
57234;BME280;43090;52.604;13.318;2023-04-15T12:51:39;100317.13;;;10.34;100.00
57234;BME280;43090;52.604;13.318;2023-04-15T12:54:08;100326.59;;;10.62;100.00
57234;BME280;43090;52.604;13.318;2023-04-15T12:56:38;100323.41;;;10.57;100.00
57234;BME280;43090;52.604;13.318;2023-04-15T12:59:08;100327.31;;;10.53;100.00
57234;BME280;43090;52.604;13.318;2023-04-15T13:01:35;100328.16;;;10.18;100.00
57234;BME280;43090;52.604;13.318;2023-04-15T13:04:06;100329.09;;;10.41;100.00
57234;BME280;43090;52.604;13.318;2023-04-15T13:06:34;100331.72;;;10.30;100.00
57234;BME280;43090;52.604;13.318;2023-04-15T13:09:02;100327.41;;;10.40;100.00
57234;BME280;43090;52.604;13.318;2023-04-15T13:11:40;100365.63;;;10.54;100.00
57234;BME280;43090;52.604;13.318;2023-04-15T13:14:20;100329.72;;;10.21;100.00
57234;BME280;43090;52.604;13.318;2023-04-15T13:16:47;100373.19;;;10.71;100.00
57234;BME280;43090;52.604;13.318;2023-04-15T13:19:16;100332.53;;;10.55;100.00
57234;BME280;43090;52.604;13.318;2023-04-15T13:21:45;100334.34;;;10.18;100.00
57234;BME280;43090;52.604;13.318;2023-04-15T13:24:17;100341.28;;;10.45;100.00
57234;BME280;43090;52.604;13.318;2023-04-15T13:26:47;100341.19;;;10.23;100.00
57234;BME280;43090;52.604;13.318;2023-04-15T13:29:23;100357.81;;;10.15;100.00
57234;BME280;43090;52.604;13.318;2023-04-15T13:31:58;100334.59;;;10.15;100.00
57234;BME280;43090;52.604;13.318;2023-04-15T13:34:28;100367.16;;;10.45;100.00
57234;BME280;43090;52.604;13.318;2023-04-15T13:37:09;100365.16;;;10.24;100.00
57234;BME280;43090;52.604;13.318;2023-04-15T13:39:37;100387.00;;;10.42;100.00
57234;BME280;43090;52.604;13.318;2023-04-15T13:42:09;100403.16;;;10.76;100.00
57234;BME280;43090;52.604;13.318;2023-04-15T13:44:38;100356.75;;;10.29;100.00
57234;BME280;43090;52.604;13.318;2023-04-15T13:47:11;100345.91;;;10.19;100.00
57234;BME280;43090;52.604;13.318;2023-04-15T13:49:39;100357.25;;;10.34;100.00
57234;BME280;43090;52.604;13.318;2023-04-15T13:52:13;100376.34;;;10.29;100.00
57234;BME280;43090;52.604;13.318;2023-04-15T13:54:40;100386.28;;;10.40;100.00